Aérodrome :
LOGIN :

S'inscrire | Disclaimer

   EN    FR    IT 

 










Légende :    VFR   VFR Marginal   IFR   IFR Intensif   IFR Très Intensif
Visi : 
Plafond : 
>= 8 km
>= 3000ft
5 à 8 km
1000 à 3000 ft
1500m à 5 km
500 à 1000 ft
800 à 1500m
200 à 500 ft
< 800m
< 200 ft
Symboles :   Orages  Brouillard  Fortes neiges  Fortes précipitations  Vent > 20 kt
SIGMETs :   Divers  Orages  Givrage  Turbulence  Onde Orograph.  Cendres Volcan.







- Altitude de l'aérodrome : 1504 ft
- Code IATA : PNA


LEPP - Noain Pamplona

DERNIER METAR :
  • 152200Z 18004KT 120V210 9999 SCT030 09/07 Q1019

METARs EXPIRÉS :
  • 152130Z 17007KT CAVOK 09/07 Q1019 RERA
  • 152100Z 18008KT 9999 -RA SCT059 09/07 Q1020
  • 152030Z 17009KT 9999 SCT035 10/07 Q1020
  • 152000Z 17008KT CAVOK 09/07 Q1020
  • 151930Z 20005KT 150V240 CAVOK 09/07 Q1020

TAF TAF LEPP
Valide du 15 à 21h jusqu'au 16 à 21h UTC


152000Z 1521/1621 17006KT 9999 SCT040 TX10/1614Z TN03/1606Z
BECMG 1612/1615 32012KT
PROB40
TEMPO 1612/1618 32015G28KT
PROB30
TEMPO 1522/1609 BKN010
TEMPO 1522/1615 3000 RA SHRA SCT030TCU
PROB30
TEMPO 1522/1609 BKN010
Pas de NOTAMs connus pour ce terrain.



MET'MAP, la Météo Aéronautique d'un coup d'oeil ! - Copyright ORBIFLY Décembre 2007 - Disclaimer

ORBIFLY MET'MAP TEAM :

Programmation & Développement : Alexandra Zaïnal
Conception & Développement : Baudouin d'Aumeries
Co-Programmation & Développement : Marc-Olivier Méhu
Soutien technique & logistique : Manuel Goepfert

Contact : metmap@orbifly.com




SOURCES & CREDITS :

   NOAA